Rocky Mount, NC (27804)

2:10 PM EST en Enero 24, 2017 (GMT -0500)
City Lake -- Rocky Mount | | Change Station

Alt 123 ft 35.95 °N, 77.82 °W | Updated 18 seconds ago

Parcialmente nublado
Parcialmente nublado
57.6 ° F
Sensación térmica 57.6 ° F
N
8.3
Viento Variable Viento desde Oeste
Gusts 12.3 mph

Hoy
Alta -- | Baja -- ° F
--% Posibilidad de precipitaciones
Ayer
Alta -- | Baja -- ° F
Precip. -- pul
Presión 29.60 pul
Visibilidad 10.0 Millas
Nubes Muy nublado 5000 ft
Punto de rocío 35 ° F
Humedad 42%
Precipitaciones 0.00 pul
Espesor de la nieve No disponible.
7:17 AM 5:30 PM
Creciente menguante, 10% visible
METAR KRWI 241853Z AUTO 30011G18KT 10SM BKN050 14/03 A2960 RMK AO2 SLP024 T01440033
Presión 29.60 pul
Visibilidad 10.0 Millas
Nubes Muy nublado 5000 ft
Punto de rocío 35 ° F
Humedad 42%
Precipitaciones 0.00 pul
Espesor de la nieve No disponible.
7:17 AM 5:30 PM
Creciente menguante, 10% visible
METAR KRWI 241853Z AUTO 30011G18KT 10SM BKN050 14/03 A2960 RMK AO2 SLP024 T01440033

Get Your Daily Forecast Email!

Thanks for signing up!

Be on the lookout for a verification email in your inbox.

You'll start receiving the daily forecast at 8 AM.

×

10-Day Weather Forecast

Almanac

Astronomía

Jan. 24, 2017 Salida Puesta
Hora real
Crepúsculo civil
Crepúsculo náutico
Crepúsculo astronómico
Luna
Horas de luz
Horas de luz
Tomorrow will be .
, % of the Moon is Illuminated

Extremos de hoy

Máximos del estado Bajos del estado

Community

WunderPhotos

Upload Photos

1,962,540 ¡fotos cargadas!

WunderBlog® & News

Nearby

Calidad del aire

  Calidad del aire Índice AQ Contaminante
Not available.

Grosos de nieve

Estación Profundido Altura

Actividad de terremotos

Ciudad Distance Mag. Tiempo y dato
Magnitud mínima muestra es 2,5.

Temperaturas de aguas costeras

Lugar Temperatura

Stations

Estaciones meteorológicas cercanas

Ubicación de la estación Temp. Vientos helados Punto de rocío Humedad Viento Precip. Alt Actualizado Tipo
                   

Watches & Warnings

There are currently no watches in effect.